Time;durP1;ratioP1;P1;durP2;ratioP2;P2;SDS_P1;SDS_P2;PMS_P1;PMS_P2;Temp;Humidity;BMP_temperature;BMP_pressure;BME280_temperature;BME280_humidity;BME280_pressure;Samples;Min_cycle;Max_cycle;Signal;HPM_P1;HPM_P2
2022/07/23 08:18:49;;;;;;;11.43;3.55;;;;;;;34.31;24.35;99621.72;7597240;32;38636;-78
2022/07/23 08:23:07;;;;;;;8.38;3.30;;;;;;;34.77;23.21;99619.87;7604620;32;36913;-76
2022/07/23 08:27:23;;;;;;;7.55;3.72;;;;;;;34.79;22.62;99630.75;7578244;33;38478;-77
2022/07/23 08:31:40;;;;;;;8.30;3.40;;;;;;;35.05;21.87;99616.72;7583085;32;40115;-77
2022/07/23 08:35:56;;;;;;;6.82;3.35;;;;;;;35.74;21.26;99619.37;7582311;32;37889;-78
2022/07/23 08:40:12;;;;;;;9.07;3.30;;;;;;;35.58;21.67;99616.56;7603899;32;37758;-81
2022/07/23 08:44:28;;;;;;;5.95;2.87;;;;;;;36.31;20.40;99613.25;7579945;33;39313;-80
2022/07/23 08:48:47;;;;;;;7.20;3.25;;;;;;;36.45;20.06;99610.78;7579835;33;40921;-79
2022/07/23 08:53:07;;;;;;;5.45;3.20;;;;;;;36.56;19.46;99610.41;7585741;32;38823;-77
2022/07/23 08:57:23;;;;;;;8.57;3.28;;;;;;;36.17;19.99;99615.28;7592725;32;37101;-77
2022/07/23 09:01:40;;;;;;;12.48;3.60;;;;;;;36.44;18.90;99599.88;7604324;32;39983;-76
2022/07/23 09:05:57;;;;;;;10.48;3.30;;;;;;;36.89;18.55;99590.28;7582066;32;40083;-79
2022/07/23 09:10:13;;;;;;;8.45;3.83;;;;;;;37.11;19.47;99595.25;7591531;32;38102;-74
2022/07/23 09:14:48;;;;;;;11.45;3.80;;;;;;;36.83;18.80;99592.16;7592617;32;37062;-78
2022/07/23 09:19:06;;;;;;;9.60;3.85;;;;;;;36.99;18.96;99603.34;7614888;32;39055;-79
2022/07/23 09:23:51;;;;;;;6.80;3.72;;;;;;;36.96;19.09;99597.78;7620611;32;41070;-79
2022/07/23 09:28:07;;;;;;;6.28;3.62;;;;;;;37.27;18.64;99592.25;7613719;32;38649;-79
2022/07/23 09:32:23;;;;;;;5.82;3.62;;;;;;;37.25;18.54;99594.75;7630862;32;38628;-79
2022/07/23 09:36:40;;;;;;;6.20;3.80;;;;;;;37.15;18.76;99602.41;7630688;32;39991;-79
2022/07/23 09:41:09;;;;;;;9.45;3.83;;;;;;;37.52;18.03;99579.19;7632373;32;40213;-79
2022/07/23 09:45:25;;;;;;;11.30;3.67;;;;;;;37.92;18.21;99584.22;7608031;32;38035;-79
2022/07/23 09:49:57;;;;;;;12.77;4.35;;;;;;;38.21;17.77;99583.13;7609809;32;37790;-81
2022/07/23 09:54:40;;;;;;;6.35;3.78;;;;;;;38.43;18.41;99575.31;7605427;32;40007;-80
2022/07/23 09:59:07;;;;;;;7.28;3.83;;;;;;;38.17;17.73;99565.41;7633964;32;40803;-80
2022/07/23 10:03:23;;;;;;;7.75;4.10;;;;;;;38.00;17.86;99577.00;7633755;32;38580;-80
2022/07/23 10:07:41;;;;;;;8.65;4.28;;;;;;;37.91;17.47;99574.91;7617875;32;37708;-80
2022/07/23 10:12:05;;;;;;;7.07;4.45;;;;;;;38.58;17.00;99566.19;7630464;32;38343;-80
2022/07/23 10:16:22;;;;;;;5.70;3.80;;;;;;;38.68;17.16;99554.34;7630023;32;39621;-81
2022/07/23 10:20:43;;;;;;;6.80;3.80;;;;;;;39.61;16.39;99549.50;7630711;32;37607;-80
2022/07/23 10:25:26;;;;;;;7.75;4.32;;;;;;;39.46;16.03;99542.84;7601205;32;36954;-79
2022/07/23 10:30:07;;;;;;;6.25;4.00;;;;;;;39.65;16.21;99537.16;7615694;32;39806;-79
2022/07/23 10:34:35;;;;;;;9.70;4.20;;;;;;;39.94;15.67;99536.63;7617001;32;39914;-80
2022/07/23 10:38:55;;;;;;;12.75;4.15;;;;;;;39.91;15.94;99526.94;7633390;32;38717;-79
2022/07/23 10:43:16;;;;;;;8.88;4.10;;;;;;;39.70;15.58;99530.78;7633507;32;35512;-79
2022/07/23 10:47:42;;;;;;;5.78;3.75;;;;;;;39.69;15.86;99526.34;7632936;32;39003;-79
2022/07/23 10:52:14;;;;;;;7.68;4.15;;;;;;;39.51;16.07;99519.44;7632630;32;39890;-80
2022/07/23 10:56:49;;;;;;;8.32;3.62;;;;;;;40.06;15.74;99509.16;7632990;32;38619;-79
2022/07/23 11:01:37;;;;;;;10.00;4.30;;;;;;;39.86;16.28;99516.19;7633096;32;37248;-78
2022/07/23 11:05:53;;;;;;;7.97;3.92;;;;;;;39.73;16.21;99515.56;7621633;32;39177;-79
2022/07/23 11:10:30;;;;;;;6.22;3.35;;;;;;;39.92;15.35;99505.69;7633003;32;40067;-79
2022/07/23 11:15:10;;;;;;;5.93;3.28;;;;;;;39.93;15.18;99501.59;7621601;32;38685;-79
2022/07/23 11:19:26;;;;;;;9.48;3.60;;;;;;;39.89;15.72;99500.94;7632312;32;36725;-79
2022/07/23 11:24:02;;;;;;;16.55;4.32;;;;;;;39.47;16.15;99506.59;7632613;32;40113;-79
2022/07/23 11:28:21;;;;;;;11.18;3.90;;;;;;;39.33;15.89;99496.63;7632326;32;39476;-78
2022/07/23 11:32:40;;;;;;;10.07;4.07;;;;;;;39.80;15.97;99498.13;7631915;32;37901;-79
2022/07/23 11:36:57;;;;;;;10.35;3.58;;;;;;;39.50;16.69;99500.75;7632382;32;37532;-79
2022/07/23 11:41:13;;;;;;;9.48;3.67;;;;;;;39.71;17.58;99483.91;7632440;32;39275;-79
2022/07/23 11:45:36;;;;;;;10.75;3.80;;;;;;;40.54;16.45;99486.38;7607157;32;40808;-79
2022/07/23 11:49:58;;;;;;;7.90;3.55;;;;;;;39.97;16.20;99473.66;7623719;32;38758;-78
2022/07/23 11:54:14;;;;;;;8.70;3.65;;;;;;;40.62;15.73;99472.50;7606273;32;36962;-79
2022/07/23 11:58:30;;;;;;;6.90;3.37;;;;;;;40.73;15.36;99453.53;7614162;32;39319;-78
2022/07/23 12:02:49;;;;;;;6.47;3.65;;;;;;;40.05;15.94;99459.03;7610318;32;40852;-77
2022/07/23 12:07:24;;;;;;;9.00;3.92;;;;;;;40.25;15.72;99447.03;7608654;32;37039;-80
2022/07/23 12:11:56;;;;;;;8.35;3.78;;;;;;;39.56;17.16;99433.22;7620866;32;36949;-80
2022/07/23 12:16:12;;;;;;;8.82;3.40;;;;;;;40.26;15.80;99437.19;7631602;32;39310;-81
2022/07/23 12:20:32;;;;;;;7.07;3.78;;;;;;;40.38;16.16;99438.25;7617548;32;41310;-80
2022/07/23 12:25:00;;;;;;;10.45;3.70;;;;;;;40.07;16.33;99443.03;7632047;32;38542;-82
2022/07/23 12:29:16;;;;;;;8.95;3.53;;;;;;;40.01;16.46;99427.81;7621946;32;37761;-83
2022/07/23 12:33:35;;;;;;;5.28;3.28;;;;;;;40.92;15.50;99422.75;7592801;32;39978;-82
2022/07/23 12:37:52;;;;;;;10.20;4.03;;;;;;;41.20;14.62;99422.47;7606032;32;39962;-82
2022/07/23 12:42:12;;;;;;;6.70;3.78;;;;;;;40.58;15.36;99417.62;7630116;32;38690;-84
2022/07/23 12:46:33;;;;;;;5.87;3.53;;;;;;;41.05;15.28;99413.09;7605809;32;36986;-80
2022/07/23 12:51:00;;;;;;;14.07;4.70;;;;;;;40.84;15.33;99415.06;7603934;32;40042;-80
2022/07/23 12:55:29;;;;;;;8.90;3.67;;;;;;;40.55;15.63;99407.97;7616727;32;40783;-80
2022/07/23 12:59:48;;;;;;;9.45;3.75;;;;;;;40.24;16.01;99402.62;7629576;32;37928;-82
2022/07/23 13:04:34;;;;;;;5.25;3.50;;;;;;;40.17;16.41;99400.91;7609294;32;38528;-82
2022/07/23 13:08:50;;;;;;;7.20;3.97;;;;;;;39.24;17.36;99392.75;7592110;32;39221;-81
2022/07/23 13:13:12;;;;;;;5.03;3.20;;;;;;;40.14;15.48;99388.44;7601638;32;40922;-76
2022/07/23 13:17:31;;;;;;;7.15;4.03;;;;;;;40.51;15.97;99387.38;7607315;32;37941;-84
2022/07/23 13:21:48;;;;;;;8.98;3.65;;;;;;;40.39;15.70;99377.03;7591703;32;36526;-85
2022/07/23 13:26:04;;;;;;;7.25;4.20;;;;;;;40.28;15.14;99384.03;7628035;32;39198;-79
2022/07/23 13:30:20;;;;;;;14.57;4.30;;;;;;;40.76;15.80;99383.22;7622628;32;39727;-81
2022/07/23 13:34:40;;;;;;;5.20;3.87;;;;;;;40.64;15.72;99370.00;7616028;32;37854;-81
2022/07/23 13:38:57;;;;;;;8.32;3.65;;;;;;;40.68;15.43;99365.66;7602960;32;36925;-82
2022/07/23 13:43:16;;;;;;;8.75;3.75;;;;;;;41.71;14.67;99351.84;7603304;32;39315;-82
2022/07/23 13:47:37;;;;;;;5.32;3.40;;;;;;;41.45;14.57;99346.75;7600643;32;40078;-82
2022/07/23 13:51:53;;;;;;;6.85;3.72;;;;;;;41.72;14.71;99346.91;7598873;32;38680;-82
2022/07/23 13:56:11;;;;;;;7.03;3.45;;;;;;;41.83;14.31;99359.31;7600548;32;37072;-82
2022/07/23 14:00:30;;;;;;;8.23;3.85;;;;;;;41.57;14.58;99358.34;7600882;32;39686;-81
2022/07/23 14:05:08;;;;;;;11.30;4.00;;;;;;;40.86;15.04;99369.63;7603767;32;40426;-82
2022/07/23 14:09:26;;;;;;;10.82;3.80;;;;;;;40.55;15.48;99365.12;7603953;32;37878;-82
2022/07/23 14:13:43;;;;;;;6.43;3.75;;;;;;;40.64;16.11;99367.13;7603901;32;36975;-80
2022/07/23 14:17:59;;;;;;;7.45;3.90;;;;;;;40.43;16.06;99363.34;7603526;32;40137;-81
2022/07/23 14:22:15;;;;;;;6.68;3.65;;;;;;;40.44;16.00;99348.56;7603528;32;40100;-82
2022/07/23 14:26:32;;;;;;;9.35;4.87;;;;;;;40.20;16.68;99340.00;7604293;32;38714;-83
2022/07/23 14:30:49;;;;;;;7.45;3.80;;;;;;;39.62;17.29;99340.03;7607204;32;36893;-82
2022/07/23 14:35:06;;;;;;;6.95;4.05;;;;;;;39.67;17.26;99323.53;7607194;32;39328;-82
2022/07/23 14:39:25;;;;;;;10.10;4.57;;;;;;;39.21;17.52;99310.28;7607163;32;40972;-83
2022/07/23 14:43:42;;;;;;;12.20;4.30;;;;;;;39.22;17.34;99295.56;7606755;32;38770;-83
2022/07/23 14:47:59;;;;;;;8.82;3.83;;;;;;;39.54;17.55;99278.94;7607078;32;37112;-83
2022/07/23 14:52:16;;;;;;;6.78;4.20;;;;;;;39.62;17.05;99271.59;7606867;32;39190;-83
2022/07/23 14:56:33;;;;;;;9.85;4.25;;;;;;;39.95;16.60;99290.75;7606767;32;41667;-82
2022/07/23 15:00:50;;;;;;;13.15;4.97;;;;;;;39.16;17.67;99290.97;7606833;32;38648;-82
2022/07/23 15:05:07;;;;;;;11.18;6.55;;;;;;;38.62;17.59;99302.81;7606990;32;37611;-82
2022/07/23 15:09:23;;;;;;;10.80;6.75;;;;;;;38.59;17.73;99305.84;7593539;32;39145;-82
2022/07/23 15:13:39;;;;;;;11.15;7.85;;;;;;;37.76;19.43;99303.69;7606679;32;39998;-82
2022/07/23 15:17:56;;;;;;;14.57;8.75;;;;;;;37.26;20.14;99291.50;7593226;32;38928;-81
2022/07/23 15:22:13;;;;;;;12.13;8.02;;;;;;;36.64;21.67;99310.84;7606728;32;37775;-82
2022/07/23 15:26:30;;;;;;;13.65;8.13;;;;;;;36.66;21.40;99322.53;7606774;32;40187;-82
2022/07/23 15:30:46;;;;;;;15.57;8.63;;;;;;;36.33;22.18;99318.50;7606472;32;39683;-82
2022/07/23 15:35:05;;;;;;;12.43;7.45;;;;;;;36.06;21.73;99325.47;7606332;32;37915;-82
2022/07/23 15:39:21;;;;;;;13.02;6.75;;;;;;;35.38;23.77;99351.16;7605131;32;36742;-81
2022/07/23 15:43:37;;;;;;;10.90;6.50;;;;;;;35.27;25.16;99374.16;7609700;32;39361;-81
2022/07/23 15:47:54;;;;;;;12.02;6.72;;;;;;;34.57;25.69;99392.72;7611467;32;40224;-81
2022/07/23 15:52:10;;;;;;;15.40;6.47;;;;;;;34.48;25.81;99403.84;7625002;32;36729;-79
2022/07/23 15:56:27;;;;;;;12.05;6.78;;;;;;;33.85;25.68;99409.44;7618681;32;37590;-80
2022/07/23 16:00:43;;;;;;;9.35;6.20;;;;;;;33.62;25.55;99424.47;7606112;32;39702;-82
2022/07/23 16:05:02;;;;;;;14.95;6.97;;;;;;;33.06;26.72;99442.19;7621573;32;40808;-82
2022/07/23 16:09:18;;;;;;;15.57;6.18;;;;;;;32.99;26.28;99461.28;7617990;32;38516;-77
2022/07/23 16:13:35;;;;;;;13.90;6.68;;;;;;;32.66;27.29;99483.69;7605977;32;37078;-77
2022/07/23 16:17:51;;;;;;;17.15;5.90;;;;;;;32.66;27.08;99494.97;7605669;32;40064;-78
2022/07/23 16:22:07;;;;;;;9.52;5.82;;;;;;;32.56;26.46;99524.94;7622105;32;40853;-81
2022/07/23 16:26:23;;;;;;;10.85;5.85;;;;;;;32.25;26.53;99532.69;7601312;32;37981;-81
2022/07/23 16:30:39;;;;;;;15.40;5.95;;;;;;;32.54;26.69;99547.12;7624438;32;37631;-78
2022/07/23 16:34:55;;;;;;;13.60;5.18;;;;;;;32.47;26.02;99562.16;7615426;32;39954;-78
2022/07/23 16:39:12;;;;;;;11.85;5.70;;;;;;;32.41;26.00;99557.41;7624093;32;39858;-78
2022/07/23 16:43:32;;;;;;;8.30;5.05;;;;;;;32.79;25.73;99555.22;7616261;32;38825;-76
2022/07/23 16:47:48;;;;;;;11.75;5.85;;;;;;;31.92;26.05;99571.78;7608483;32;37717;-76
2022/07/23 16:52:05;;;;;;;9.73;5.15;;;;;;;31.83;26.40;99563.84;7594975;32;38930;-77
2022/07/23 16:56:22;;;;;;;9.20;5.47;;;;;;;31.12;27.54;99593.59;7628038;32;40790;-75
2022/07/23 17:00:38;;;;;;;10.27;6.28;;;;;;;30.86;29.14;99593.00;7629942;32;38662;-80
2022/07/23 17:04:54;;;;;;;11.10;6.28;;;;;;;30.78;33.52;99585.81;7613881;32;37632;-78
2022/07/23 17:09:11;;;;;;;12.35;6.32;;;;;;;30.67;34.42;99572.66;7605049;32;39872;-77
2022/07/23 17:13:29;;;;;;;13.23;6.30;;;;;;;30.22;36.25;99566.91;7600284;32;38909;-73
2022/07/23 17:17:46;;;;;;;12.37;6.28;;;;;;;30.49;35.96;99539.03;7619804;32;37801;-76
2022/07/23 17:22:04;;;;;;;9.80;5.97;;;;;;;30.56;36.66;99532.53;7626684;32;36695;-78
2022/07/23 17:26:25;;;;;;;11.05;7.10;;;;;;;30.31;36.73;99541.16;7604930;32;39412;-78
2022/07/23 17:30:41;;;;;;;12.48;6.80;;;;;;;29.42;37.37;99525.53;7604079;32;39872;-84
2022/07/23 17:34:57;;;;;;;15.05;7.93;;;;;;;29.71;37.86;99498.13;7613178;32;37879;-78
2022/07/23 17:39:13;;;;;;;11.38;6.95;;;;;;;30.01;37.50;99499.59;7621843;32;37744;-78
2022/07/23 17:43:30;;;;;;;14.40;6.78;;;;;;;30.29;36.64;99496.59;7613525;32;39319;-76
2022/07/23 17:47:46;;;;;;;12.95;7.00;;;;;;;30.34;36.30;99496.13;7615815;32;40905;-73
2022/07/23 17:52:04;;;;;;;11.57;6.97;;;;;;;30.40;36.33;99499.34;7625330;32;39163;-79
2022/07/23 17:56:20;;;;;;;12.32;6.82;;;;;;;30.18;37.03;99487.41;7592500;32;36981;-73
2022/07/23 18:00:37;;;;;;;13.23;6.85;;;;;;;30.28;36.99;99485.75;7625557;32;40177;-74
2022/07/23 18:04:53;;;;;;;10.88;6.32;;;;;;;30.42;36.18;99484.84;7613987;32;253628;-77
2022/07/23 18:09:14;;;;;;;10.43;6.85;;;;;;;30.15;36.90;99477.03;7632500;32;38717;-77
2022/07/23 18:13:44;;;;;;;11.15;6.68;;;;;;;30.18;36.89;99489.44;7620086;32;37783;-77
2022/07/23 18:18:02;;;;;;;10.00;6.80;;;;;;;30.09;36.93;99487.88;7620937;32;38861;-76
2022/07/23 18:22:18;;;;;;;16.42;7.70;;;;;;;30.08;37.25;99482.66;7631736;32;41317;-77
2022/07/23 18:26:34;;;;;;;12.00;9.38;;;;;;;30.01;37.63;99483.53;7632598;32;38774;-77
2022/07/23 18:30:51;;;;;;;13.50;8.10;;;;;;;29.90;37.37;99489.22;7631732;32;37128;-77
2022/07/23 18:35:08;;;;;;;12.75;7.85;;;;;;;30.05;37.19;99497.56;7619967;32;39283;-78
2022/07/23 18:39:25;;;;;;;12.98;7.18;;;;;;;29.81;37.54;99507.75;7632623;32;39831;-77
2022/07/23 18:43:41;;;;;;;9.68;6.95;;;;;;;29.72;37.64;99503.34;7633106;32;38008;-77
2022/07/23 18:47:58;;;;;;;16.67;7.40;;;;;;;29.92;37.53;99514.09;7633023;32;36972;-77
2022/07/23 18:52:14;;;;;;;13.82;8.07;;;;;;;29.57;38.65;99525.06;7619868;32;39097;-76
2022/07/23 18:56:30;;;;;;;15.85;8.55;;;;;;;29.50;39.50;99530.72;7631618;32;40617;-77
2022/07/23 19:00:47;;;;;;;14.85;7.55;;;;;;;29.54;39.62;99528.69;7607159;32;37685;-76
2022/07/23 19:05:04;;;;;;;18.87;7.87;;;;;;;29.51;39.96;99535.13;7606939;32;37732;-76
2022/07/23 19:09:20;;;;;;;14.05;8.15;;;;;;;29.39;40.90;99532.78;7610199;32;39436;-76
2022/07/23 19:13:36;;;;;;;17.20;7.68;;;;;;;29.50;40.43;99544.75;7606342;32;40109;-74
2022/07/23 19:17:52;;;;;;;13.30;8.15;;;;;;;29.66;39.08;99551.91;7607303;32;37647;-75
2022/07/23 19:22:09;;;;;;;10.95;7.68;;;;;;;29.26;39.41;99562.50;7631460;32;36679;-75
2022/07/23 19:26:25;;;;;;;13.57;7.75;;;;;;;29.00;39.84;99573.72;7632698;32;39320;-74
2022/07/23 19:30:42;;;;;;;14.38;9.30;;;;;;;29.16;39.37;99576.13;7632841;32;39991;-74
2022/07/23 19:34:58;;;;;;;12.70;7.05;;;;;;;29.04;39.71;99579.31;7615422;32;38066;-74
2022/07/23 19:39:14;;;;;;;9.88;6.53;;;;;;;29.06;39.53;99576.91;7614115;32;37099;-75
2022/07/23 19:43:30;;;;;;;14.57;7.10;;;;;;;28.93;39.79;99578.53;7626177;32;39304;-81
2022/07/23 19:47:47;;;;;;;12.23;7.95;;;;;;;28.82;40.32;99579.34;7593449;32;40992;-76
2022/07/23 19:52:10;;;;;;;15.23;8.40;;;;;;;28.90;40.20;99580.13;7614969;32;37966;-76
2022/07/23 19:56:26;;;;;;;12.25;8.20;;;;;;;28.65;41.77;99591.38;7610622;32;37011;-76
2022/07/23 20:00:45;;;;;;;12.37;8.23;;;;;;;28.35;44.26;99600.88;7615658;32;40036;-75
2022/07/23 20:05:03;;;;;;;13.18;8.68;;;;;;;28.18;44.06;99594.06;7624873;32;40834;-75
2022/07/23 20:09:19;;;;;;;12.68;8.73;;;;;;;28.11;44.44;99599.63;7605617;32;38725;-76
2022/07/23 20:13:35;;;;;;;16.45;8.27;;;;;;;28.02;44.27;99605.59;7605033;32;37826;-72
2022/07/23 20:17:51;;;;;;;11.43;7.55;;;;;;;28.15;43.52;99592.06;7627163;32;39361;-73
2022/07/23 20:22:08;;;;;;;13.52;7.75;;;;;;;28.16;43.03;99598.44;7631147;32;39644;-73
2022/07/23 20:26:25;;;;;;;15.85;7.78;;;;;;;28.08;43.15;99592.03;7630520;32;37908;-73
2022/07/23 20:30:42;;;;;;;12.07;7.32;;;;;;;28.24;42.51;99605.69;7630791;32;37023;-74
2022/07/23 20:34:58;;;;;;;10.70;7.40;;;;;;;28.07;42.76;99608.03;7606448;32;38958;-74
2022/07/23 20:39:15;;;;;;;12.23;7.82;;;;;;;28.05;42.69;99602.03;7614275;32;40583;-74
2022/07/23 20:43:31;;;;;;;12.82;7.50;;;;;;;28.12;42.40;99600.44;7630061;32;37867;-73
2022/07/23 20:47:47;;;;;;;10.48;6.70;;;;;;;28.08;42.28;99598.44;7631581;32;37046;-74
2022/07/23 20:52:05;;;;;;;14.65;7.15;;;;;;;28.25;41.68;99596.06;7630499;32;38931;-73
2022/07/23 20:56:21;;;;;;;11.60;7.60;;;;;;;28.12;41.80;99600.44;7631197;32;40810;-73
2022/07/23 21:00:40;;;;;;;10.68;7.07;;;;;;;27.86;42.16;99594.72;7629773;32;37976;-74
2022/07/23 21:04:57;;;;;;;13.15;8.00;;;;;;;27.75;42.21;99598.66;7631035;32;35967;-74
2022/07/23 21:09:13;;;;;;;14.02;9.63;;;;;;;27.78;43.30;99593.06;7631002;32;39818;-74
2022/07/23 21:13:29;;;;;;;20.70;12.85;;;;;;;27.42;44.53;99589.31;7600408;32;39910;-74
2022/07/23 21:17:45;;;;;;;19.75;9.98;;;;;;;27.55;43.89;99587.78;7604760;32;37711;-75
2022/07/23 21:22:01;;;;;;;12.32;8.50;;;;;;;27.17;44.69;99601.12;7604171;32;37160;-73
2022/07/23 21:26:17;;;;;;;11.07;7.65;;;;;;;27.18;44.16;99608.28;7604869;32;39630;-75
2022/07/23 21:30:48;;;;;;;12.55;7.30;;;;;;;27.15;44.00;99620.28;7623635;32;40559;-76
2022/07/23 21:35:06;;;;;;;11.55;7.47;;;;;;;27.16;43.98;99630.28;7630569;32;37619;-74
2022/07/23 21:39:22;;;;;;;18.67;8.18;;;;;;;26.94;44.49;99632.91;7633164;32;37076;-75
2022/07/23 21:43:38;;;;;;;11.85;7.45;;;;;;;26.89;44.52;99636.06;7632832;32;40204;-75
2022/07/23 21:47:54;;;;;;;15.15;7.60;;;;;;;26.81;44.63;99645.56;7633861;32;39745;-75
2022/07/23 21:52:10;;;;;;;13.05;7.80;;;;;;;26.90;44.26;99648.84;7633148;32;37738;-75
2022/07/23 21:56:27;;;;;;;12.93;7.75;;;;;;;26.80;44.58;99663.53;7633176;32;36970;-75
2022/07/23 22:00:43;;;;;;;16.75;8.88;;;;;;;26.64;45.10;99657.41;7632888;32;39224;-74
2022/07/23 22:04:59;;;;;;;12.63;8.35;;;;;;;26.73;45.47;99672.69;7632858;32;40043;-75
2022/07/23 22:09:15;;;;;;;12.65;9.18;;;;;;;26.69;46.41;99668.22;7632559;32;36449;-75
2022/07/23 22:13:32;;;;;;;12.45;8.50;;;;;;;26.66;46.71;99661.41;7632946;32;37046;-74
2022/07/23 22:17:48;;;;;;;12.88;8.20;;;;;;;26.59;46.90;99670.47;7632989;32;39974;-75
2022/07/23 22:22:04;;;;;;;11.93;8.35;;;;;;;26.51;46.42;99668.81;7632576;32;41248;-75
2022/07/23 22:26:20;;;;;;;15.75;8.13;;;;;;;26.46;46.54;99691.53;7633403;32;37567;-75
2022/07/23 22:30:36;;;;;;;12.15;8.05;;;;;;;26.40;46.50;99677.06;7633025;32;38262;-75
2022/07/23 22:34:52;;;;;;;11.57;7.90;;;;;;;26.69;45.60;99662.66;7633708;32;38996;-75
2022/07/23 22:39:08;;;;;;;14.25;7.82;;;;;;;26.42;46.15;99649.56;7633452;32;40745;-75
2022/07/23 22:43:24;;;;;;;14.38;7.78;;;;;;;26.36;46.28;99639.12;7633347;32;38465;-74
2022/07/23 22:47:41;;;;;;;13.43;8.00;;;;;;;26.47;45.91;99637.22;7632447;32;36661;-75
2022/07/23 22:51:58;;;;;;;12.45;7.82;;;;;;;26.31;46.21;99647.84;7632267;32;39590;-75
2022/07/23 22:56:15;;;;;;;14.55;8.07;;;;;;;26.24;46.27;99657.72;7633059;32;40656;-75
2022/07/23 23:00:33;;;;;;;15.30;7.97;;;;;;;26.19;46.71;99668.44;7627382;32;37960;-74
2022/07/23 23:04:49;;;;;;;11.68;8.52;;;;;;;26.14;46.94;99672.38;7605083;32;37747;-75
2022/07/23 23:09:05;;;;;;;12.73;8.57;;;;;;;26.10;49.12;99671.53;7603671;32;39199;-75
2022/07/23 23:13:22;;;;;;;14.35;8.48;;;;;;;25.96;50.36;99682.53;7603771;32;39953;-75
2022/07/23 23:17:39;;;;;;;12.07;8.80;;;;;;;25.78;50.40;99668.28;7603557;32;37897;-75
2022/07/23 23:21:55;;;;;;;14.50;9.18;;;;;;;25.86;49.70;99675.59;7606822;32;37095;-75
2022/07/23 23:26:12;;;;;;;12.77;8.48;;;;;;;25.71;49.96;99685.75;7618542;32;39982;-75
2022/07/23 23:30:30;;;;;;;14.48;8.57;;;;;;;25.59;50.11;99691.53;7632906;32;39939;-75
2022/07/23 23:34:46;;;;;;;15.52;9.82;;;;;;;25.76;49.60;99682.63;7632718;32;38033;-75
2022/07/23 23:39:03;;;;;;;14.35;10.02;;;;;;;25.62;50.44;99694.38;7632699;32;37077;-75
2022/07/23 23:43:21;;;;;;;12.60;9.38;;;;;;;25.32;51.83;99710.25;7632701;32;39923;-73
2022/07/23 23:47:37;;;;;;;14.93;9.52;;;;;;;25.43;52.03;99731.56;7632649;32;40947;-73
2022/07/23 23:51:53;;;;;;;15.50;8.75;;;;;;;25.26;53.67;99757.19;7632587;32;37833;-74
2022/07/23 23:56:09;;;;;;;12.98;9.32;;;;;;;25.30;53.30;99766.41;7631015;32;37145;-75
